Edgington, Illinois
Current Conditions -  °F | °C
As of 4:52 PM on Wednesday 26 Nov 2014 (Local Time) from KMLI Reporting Station
Overcast Overcast  
Wind Chill: 20°   Ceiling: 1300
Heat Index: 29°   Visibility: 8mi
Dew Point: 23°   Wind: 10mph
Humidity: 78%   Direction: 70°ENE
Pressure: 30.11"   Gusts: NA
Location:  41.3983°N, 90.7402°W
Report Text: KMLI 262252Z 07009KT 8SM OVC013 M02/M05 A3011 RMK AO2 SLP206 T10171050 $
Loading
Personal Weather Stations






























Interactive Weather Map New forecast layout! Learn more

10-Day Weather Forecast

Advertisements
Track Severe Weather on mobile